createdAt,value
2016-05-28T00:00:35.438Z,960.46
2016-05-28T00:01:35.441Z,960.4
2016-05-28T00:02:35.444Z,960.46
2016-05-28T00:03:35.463Z,960.42
2016-05-28T00:04:35.481Z,960.36
2016-05-28T00:05:35.484Z,960.31
2016-05-28T00:06:35.487Z,960.29
2016-05-28T00:07:35.504Z,960.31
2016-05-28T00:08:35.508Z,960.32
2016-05-28T00:09:35.526Z,960.31
2016-05-28T00:10:35.543Z,960.3
2016-05-28T00:11:35.547Z,960.31
2016-05-28T00:12:35.549Z,960.28
2016-05-28T00:13:35.568Z,960.28
2016-05-28T00:14:35.587Z,960.26
2016-05-28T00:15:35.589Z,960.27
2016-05-28T00:16:35.592Z,960.29
2016-05-28T00:17:35.609Z,960.26
2016-05-28T00:18:35.628Z,960.21
2016-05-28T00:19:35.881Z,960.21
2016-05-28T00:20:35.634Z,960.19
2016-05-28T00:21:35.652Z,960.22
2016-05-28T00:22:35.655Z,960.19
2016-05-28T00:23:35.673Z,960.19
2016-05-28T00:24:35.676Z,960.22
2016-05-28T00:25:35.694Z,960.24
2016-05-28T00:26:35.696Z,960.25
2016-05-28T00:27:35.715Z,960.25
2016-05-28T00:28:35.717Z,960.24
2016-05-28T00:29:35.736Z,960.23
2016-05-28T00:30:35.739Z,960.24
2016-05-28T00:31:35.757Z,960.25
2016-05-28T00:32:35.760Z,960.23
2016-05-28T00:33:35.778Z,960.23
2016-05-28T00:34:36.093Z,960.16
2016-05-28T00:35:35.799Z,960.19
2016-05-28T00:36:35.802Z,960.18
2016-05-28T00:37:35.821Z,960.21
2016-05-28T00:38:35.823Z,960.24
2016-05-28T00:39:35.841Z,960.24
2016-05-28T00:40:35.843Z,960.23
2016-05-28T00:41:35.846Z,960.21
2016-05-28T00:42:35.880Z,960.26
2016-05-28T00:43:35.883Z,960.22
2016-05-28T00:44:35.885Z,960.18
2016-05-28T00:45:35.904Z,960.21
2016-05-28T00:46:35.907Z,960.15
2016-05-28T00:47:35.910Z,960.17
2016-05-28T00:48:35.928Z,960.16
2016-05-28T00:49:35.931Z,960.13
2016-05-28T00:50:35.948Z,960.18
2016-05-28T00:51:35.951Z,960.18
2016-05-28T00:52:35.970Z,960.19
2016-05-28T00:53:35.988Z,960.19
2016-05-28T00:54:35.991Z,960.21
2016-05-28T00:55:36.009Z,960.16
2016-05-28T00:56:36.011Z,960.16
2016-05-28T00:57:36.015Z,960.12
2016-05-28T00:58:36.033Z,960.08
2016-05-28T00:59:36.035Z,960.09
2016-05-28T01:00:36.054Z,960.07
2016-05-28T01:01:36.056Z,960.04
2016-05-28T01:02:36.074Z,960.08
2016-05-28T01:03:36.077Z,960.11
2016-05-28T01:04:36.127Z,960.09
2016-05-28T01:05:36.099Z,960.08
2016-05-28T01:06:36.116Z,960.11
2016-05-28T01:07:36.119Z,960.08
2016-05-28T01:08:36.138Z,960.09
2016-05-28T01:09:36.157Z,960.04
2016-05-28T01:10:36.160Z,960.04
2016-05-28T01:11:36.161Z,959.98
2016-05-28T01:12:36.164Z,959.98
2016-05-28T01:13:36.182Z,959.91
2016-05-28T01:14:36.185Z,959.9
2016-05-28T01:15:36.203Z,959.89
2016-05-28T01:16:36.222Z,959.9
2016-05-28T01:17:36.224Z,959.86
2016-05-28T01:18:36.243Z,959.88
2016-05-28T01:19:36.245Z,959.89
2016-05-28T01:20:36.264Z,959.89
2016-05-28T01:21:36.267Z,959.9
2016-05-28T01:22:36.269Z,959.94
2016-05-28T01:23:36.287Z,959.88
2016-05-28T01:24:36.290Z,959.89
2016-05-28T01:25:36.308Z,959.82
2016-05-28T01:26:36.311Z,959.81
2016-05-28T01:27:36.329Z,959.85
2016-05-28T01:28:36.333Z,959.81
2016-05-28T01:29:36.351Z,959.8
2016-05-28T01:30:36.353Z,959.75
2016-05-28T01:31:36.372Z,959.77
2016-05-28T01:32:36.374Z,959.78
2016-05-28T01:33:36.392Z,959.81
2016-05-28T01:34:36.395Z,959.79
2016-05-28T01:35:36.413Z,959.78
2016-05-28T01:36:36.416Z,959.77
2016-05-28T01:37:36.435Z,959.76
2016-05-28T01:38:36.437Z,959.76
2016-05-28T01:39:36.455Z,959.75
2016-05-28T01:40:36.457Z,959.73
2016-05-28T01:41:36.477Z,959.75
2016-05-28T01:42:36.479Z,959.76
2016-05-28T01:43:36.498Z,959.78
2016-05-28T01:44:36.501Z,959.75
2016-05-28T01:45:36.503Z,959.74
2016-05-28T01:46:36.521Z,959.74
2016-05-28T01:47:36.524Z,959.72
2016-05-28T01:48:36.542Z,959.7
2016-05-28T01:49:36.545Z,959.68
2016-05-28T01:50:36.563Z,959.64
2016-05-28T01:51:36.565Z,959.63
2016-05-28T01:52:36.584Z,959.63
2016-05-28T01:53:36.602Z,959.6
2016-05-28T01:54:36.605Z,959.63
2016-05-28T01:55:36.623Z,959.64
2016-05-28T01:56:36.626Z,959.58
2016-05-28T01:57:36.645Z,959.54
2016-05-28T01:58:36.647Z,959.53
2016-05-28T01:59:36.650Z,959.42
2016-05-28T02:00:36.669Z,959.42
2016-05-28T02:01:36.686Z,959.4
2016-05-28T02:02:36.689Z,959.36
2016-05-28T02:03:36.691Z,959.35
2016-05-28T02:04:36.710Z,959.31
2016-05-28T02:05:36.713Z,959.27
2016-05-28T02:06:36.731Z,959.25
2016-05-28T02:07:36.750Z,959.25
2016-05-28T02:08:36.752Z,959.25
2016-05-28T02:09:36.755Z,959.23
2016-05-28T02:10:36.774Z,959.19
2016-05-28T02:11:36.777Z,959.16
2016-05-28T02:12:36.794Z,959.19
2016-05-28T02:13:36.781Z,959.16
2016-05-28T02:14:36.815Z,959.17
2016-05-28T02:15:36.818Z,959.16
2016-05-28T02:16:36.837Z,959.16
2016-05-28T02:17:36.839Z,959.17
2016-05-28T02:18:36.842Z,959.17
2016-05-28T02:19:36.859Z,959.19
2016-05-28T02:20:36.879Z,959.16
2016-05-28T02:21:36.881Z,959.16
2016-05-28T02:22:36.898Z,959.21
2016-05-28T02:23:36.902Z,959.14
2016-05-28T02:24:36.920Z,959.13
2016-05-28T02:25:36.923Z,959.15
2016-05-28T02:26:36.926Z,959.14
2016-05-28T02:27:36.944Z,959.13
2016-05-28T02:28:36.947Z,959.1
2016-05-28T02:29:36.965Z,959.07
2016-05-28T02:30:36.983Z,959.13
2016-05-28T02:31:36.986Z,959.11
2016-05-28T02:32:36.989Z,959.11
2016-05-28T02:33:37.007Z,959.09
2016-05-28T02:34:37.010Z,959.1
2016-05-28T02:35:37.027Z,959.11
2016-05-28T02:36:37.030Z,959.1
2016-05-28T02:37:37.050Z,959.1
2016-05-28T02:38:37.052Z,959.11
2016-05-28T02:39:37.055Z,959.13
2016-05-28T02:40:37.072Z,959.12
2016-05-28T02:41:37.091Z,959.17
2016-05-28T02:42:37.093Z,959.18
2016-05-28T02:43:37.113Z,959.16
2016-05-28T02:44:37.115Z,959.17
2016-05-28T02:45:37.132Z,959.17
2016-05-28T02:46:37.136Z,959.17
2016-05-28T02:47:37.154Z,959.14
2016-05-28T02:48:37.157Z,959.14
2016-05-28T02:49:37.159Z,959.15
2016-05-28T02:50:37.178Z,959.13
2016-05-28T02:51:37.181Z,959.11
2016-05-28T02:52:37.199Z,959.14
2016-05-28T02:53:37.202Z,959.16
2016-05-28T02:54:37.219Z,959.17
2016-05-28T02:55:37.237Z,959.17
2016-05-28T02:56:37.240Z,959.2
2016-05-28T02:57:37.243Z,959.2
2016-05-28T02:58:37.261Z,959.22
2016-05-28T02:59:37.264Z,959.29
2016-05-28T03:00:37.267Z,959.31
2016-05-28T03:01:37.285Z,959.35
2016-05-28T03:02:37.304Z,959.36
2016-05-28T03:03:37.306Z,959.36
2016-05-28T03:04:37.747Z,959.38
2016-05-28T03:05:37.327Z,959.38
2016-05-28T03:06:37.330Z,959.4
2016-05-28T03:07:37.348Z,959.35
2016-05-28T03:08:37.352Z,959.34
2016-05-28T03:09:37.369Z,959.31
2016-05-28T03:10:37.372Z,959.29
2016-05-28T03:11:37.391Z,959.27
2016-05-28T03:12:37.394Z,959.27
2016-05-28T03:13:37.411Z,959.23
2016-05-28T03:14:37.430Z,959.28
2016-05-28T03:15:37.432Z,959.21
2016-05-28T03:16:37.435Z,959.17
2016-05-28T03:17:37.453Z,959.15
2016-05-28T03:18:37.457Z,959.16
2016-05-28T03:19:37.631Z,959.19
2016-05-28T03:20:37.477Z,959.16
2016-05-28T03:21:37.495Z,959.15
2016-05-28T03:22:37.514Z,959.12
2016-05-28T03:23:37.501Z,959.09
2016-05-28T03:24:37.520Z,959.1
2016-05-28T03:25:37.522Z,959.06
2016-05-28T03:26:37.540Z,959.02
2016-05-28T03:27:37.542Z,959.02
2016-05-28T03:28:37.561Z,959.01
2016-05-28T03:29:37.579Z,959.04
2016-05-28T03:30:37.582Z,959.02
2016-05-28T03:31:37.600Z,959.05
2016-05-28T03:32:37.603Z,959.09
2016-05-28T03:33:37.606Z,959.1
2016-05-28T03:34:37.624Z,959.13
2016-05-28T03:35:37.627Z,959.2
2016-05-28T03:36:37.645Z,959.24
2016-05-28T03:37:37.647Z,959.23
2016-05-28T03:38:37.666Z,959.31
2016-05-28T03:39:37.668Z,959.31
2016-05-28T03:40:37.687Z,959.29
2016-05-28T03:41:37.691Z,959.32
2016-05-28T03:42:37.693Z,959.29
2016-05-28T03:43:37.710Z,959.28
2016-05-28T03:44:37.730Z,959.29
2016-05-28T03:45:37.732Z,959.25
2016-05-28T03:46:37.750Z,959.26
2016-05-28T03:47:37.752Z,959.23
2016-05-28T03:48:37.755Z,959.3
2016-05-28T03:49:37.774Z,959.27
2016-05-28T03:50:37.777Z,959.28
2016-05-28T03:51:37.795Z,959.29
2016-05-28T03:52:37.798Z,959.29
2016-05-28T03:53:37.816Z,959.38
2016-05-28T03:54:37.819Z,959.34
2016-05-28T03:55:37.837Z,959.36
2016-05-28T03:56:37.855Z,959.4
2016-05-28T03:57:37.858Z,959.41
2016-05-28T03:58:37.876Z,959.43
2016-05-28T03:59:37.878Z,959.42
2016-05-28T04:00:37.897Z,959.39
2016-05-28T04:01:37.915Z,959.42
2016-05-28T04:02:37.903Z,959.4
2016-05-28T04:03:37.921Z,959.4
2016-05-28T04:04:38.095Z,959.39
2016-05-28T04:05:37.942Z,959.43
2016-05-28T04:06:37.945Z,959.43
2016-05-28T04:07:37.963Z,959.44
2016-05-28T04:08:37.965Z,959.41
2016-05-28T04:09:38.000Z,959.37
2016-05-28T04:10:37.986Z,959.4
2016-05-28T04:11:38.036Z,959.43
2016-05-28T04:12:38.008Z,959.4
2016-05-28T04:13:38.010Z,959.39
2016-05-28T04:14:38.029Z,959.42
2016-05-28T04:15:38.047Z,959.42
2016-05-28T04:16:38.050Z,959.43
2016-05-28T04:17:38.052Z,959.42
2016-05-28T04:18:38.071Z,959.42
2016-05-28T04:19:38.277Z,959.44
2016-05-28T04:20:38.091Z,959.46
2016-05-28T04:21:38.094Z,959.45
2016-05-28T04:22:38.112Z,959.43
2016-05-28T04:23:38.115Z,959.44
2016-05-28T04:24:38.134Z,959.39
2016-05-28T04:25:38.137Z,959.41
2016-05-28T04:26:38.154Z,959.43
2016-05-28T04:27:38.157Z,959.42
2016-05-28T04:28:38.175Z,959.45
2016-05-28T04:29:38.178Z,959.39
2016-05-28T04:30:38.197Z,959.38
2016-05-28T04:31:38.214Z,959.39
2016-05-28T04:32:38.217Z,959.39
2016-05-28T04:33:38.220Z,959.35
2016-05-28T04:34:38.644Z,959.34
2016-05-28T04:35:38.241Z,959.36
2016-05-28T04:36:38.244Z,959.34
2016-05-28T04:37:38.278Z,959.39
2016-05-28T04:38:38.281Z,959.37
2016-05-28T04:39:38.299Z,959.45
2016-05-28T04:40:38.286Z,959.47
2016-05-28T04:41:38.305Z,959.49
2016-05-28T04:42:38.307Z,959.5
2016-05-28T04:43:38.325Z,959.55
2016-05-28T04:44:38.328Z,959.56
2016-05-28T04:45:38.347Z,959.61
2016-05-28T04:46:38.349Z,959.63
2016-05-28T04:47:38.368Z,959.67
2016-05-28T04:48:38.371Z,959.66
2016-05-28T04:49:38.669Z,959.67
2016-05-28T04:50:38.391Z,959.68
2016-05-28T04:51:38.410Z,959.73
2016-05-28T04:52:38.412Z,959.73
2016-05-28T04:53:38.430Z,959.75
2016-05-28T04:54:38.449Z,959.79
2016-05-28T04:55:38.451Z,959.8
2016-05-28T04:56:38.454Z,959.76
2016-05-28T04:57:38.456Z,959.81
2016-05-28T04:58:38.475Z,959.82
2016-05-28T04:59:38.478Z,959.84
2016-05-28T05:00:38.496Z,959.88
2016-05-28T05:01:38.514Z,959.86
2016-05-28T05:02:38.517Z,959.88
2016-05-28T05:03:38.520Z,959.88
2016-05-28T05:04:38.538Z,959.91
2016-05-28T05:05:38.541Z,959.85
2016-05-28T05:06:38.558Z,959.89
2016-05-28T05:07:38.561Z,959.91
2016-05-28T05:08:38.574Z,959.93
2016-05-28T05:09:38.617Z,959.9
2016-05-28T05:10:38.644Z,959.95
2016-05-28T05:11:38.686Z,959.98
2016-05-28T05:12:38.713Z,960.03
2016-05-28T05:13:38.751Z,960.1
2016-05-28T05:14:38.779Z,960.11
2016-05-28T05:15:38.790Z,960.19
2016-05-28T05:16:38.816Z,960.26
2016-05-28T05:17:38.828Z,960.33
2016-05-28T05:18:38.854Z,960.47
2016-05-28T05:19:39.468Z,960.56
2016-05-28T05:20:38.864Z,960.56
2016-05-28T05:21:38.887Z,960.62
2016-05-28T05:22:38.908Z,960.63
2016-05-28T05:23:38.912Z,960.61
2016-05-28T05:24:38.917Z,960.57
2016-05-28T05:25:38.936Z,960.57
2016-05-28T05:26:38.955Z,960.55
2016-05-28T05:27:38.975Z,960.52
2016-05-28T05:28:38.978Z,960.6
2016-05-28T05:29:38.981Z,960.64
2016-05-28T05:30:39.000Z,960.64
2016-05-28T05:31:38.988Z,960.62
2016-05-28T05:32:39.007Z,960.65
2016-05-28T05:33:39.010Z,960.63
2016-05-28T05:34:39.027Z,960.56
2016-05-28T05:35:39.029Z,960.5
2016-05-28T05:36:39.049Z,960.47
2016-05-28T05:37:39.067Z,960.54
2016-05-28T05:38:39.070Z,960.59
2016-05-28T05:39:39.087Z,960.64
2016-05-28T05:40:39.090Z,960.62
2016-05-28T05:41:39.093Z,960.56
2016-05-28T05:42:39.112Z,960.53
2016-05-28T05:43:39.114Z,960.57
2016-05-28T05:44:39.132Z,960.59
2016-05-28T05:45:39.135Z,960.62
2016-05-28T05:46:39.154Z,960.61
2016-05-28T05:47:39.172Z,960.58
2016-05-28T05:48:39.174Z,960.62
2016-05-28T05:49:39.381Z,960.61
2016-05-28T05:50:39.195Z,960.68
2016-05-28T05:51:39.198Z,960.69
2016-05-28T05:52:39.217Z,960.67
2016-05-28T05:53:39.219Z,960.72
2016-05-28T05:54:39.238Z,960.67
2016-05-28T05:55:39.240Z,960.72
2016-05-28T05:56:39.244Z,960.72
2016-05-28T05:57:39.261Z,960.77
2016-05-28T05:58:39.264Z,960.77
2016-05-28T05:59:39.283Z,960.8
2016-05-28T06:00:39.285Z,960.82
2016-05-28T06:01:39.303Z,960.81
2016-05-28T06:02:39.305Z,960.84
2016-05-28T06:03:39.325Z,960.81
2016-05-28T06:04:39.327Z,960.82
2016-05-28T06:05:39.346Z,960.81
2016-05-28T06:06:39.348Z,960.81
2016-05-28T06:07:39.365Z,960.77
2016-05-28T06:08:39.368Z,960.76
2016-05-28T06:09:39.419Z,960.78
2016-05-28T06:10:39.390Z,960.72
2016-05-28T06:11:39.392Z,960.75
2016-05-28T06:12:39.411Z,960.71
2016-05-28T06:13:39.414Z,960.76
2016-05-28T06:14:39.432Z,960.72
2016-05-28T06:15:39.434Z,960.73
2016-05-28T06:16:39.453Z,960.75
2016-05-28T06:17:39.456Z,960.73
2016-05-28T06:18:39.474Z,960.66
2016-05-28T06:19:39.476Z,960.69
2016-05-28T06:20:39.495Z,960.67
2016-05-28T06:21:39.498Z,960.68
2016-05-28T06:22:39.531Z,960.63
2016-05-28T06:23:39.519Z,960.63
2016-05-28T06:24:39.537Z,960.68
2016-05-28T06:25:39.539Z,960.63
2016-05-28T06:26:39.542Z,960.7
2016-05-28T06:27:39.577Z,960.65
2016-05-28T06:28:39.579Z,960.63
2016-05-28T06:29:39.582Z,960.65
2016-05-28T06:30:39.600Z,960.57
2016-05-28T06:31:39.602Z,960.58
2016-05-28T06:32:39.621Z,960.52
2016-05-28T06:33:39.624Z,960.54
2016-05-28T06:34:39.642Z,960.53
2016-05-28T06:35:39.644Z,960.54
2016-05-28T06:36:39.663Z,960.52
2016-05-28T06:37:39.665Z,960.51
2016-05-28T06:38:39.668Z,960.5
2016-05-28T06:39:39.687Z,960.46
2016-05-28T06:40:39.705Z,960.45
2016-05-28T06:41:39.707Z,960.49
2016-05-28T06:42:39.726Z,960.51
2016-05-28T06:43:39.729Z,960.53
2016-05-28T06:44:39.747Z,960.54
2016-05-28T06:45:39.750Z,960.58
2016-05-28T06:46:39.752Z,960.52
2016-05-28T06:47:39.771Z,960.47
2016-05-28T06:48:39.773Z,960.51
2016-05-28T06:49:39.792Z,960.47
2016-05-28T06:50:39.809Z,960.42
2016-05-28T06:51:39.812Z,960.43
2016-05-28T06:52:39.815Z,960.41
2016-05-28T06:53:39.833Z,960.37
2016-05-28T06:54:39.837Z,960.35
2016-05-28T06:55:39.855Z,960.32
2016-05-28T06:56:39.872Z,960.26
2016-05-28T06:57:39.861Z,960.23
2016-05-28T06:58:39.879Z,960.18
2016-05-28T06:59:39.897Z,960.18
2016-05-28T07:00:39.899Z,960.16
2016-05-28T07:01:39.902Z,960.19
2016-05-28T07:02:39.921Z,960.19
2016-05-28T07:03:39.938Z,960.2
2016-05-28T07:04:39.941Z,960.18
2016-05-28T07:05:39.960Z,960.16
2016-05-28T07:06:39.962Z,960.11
2016-05-28T07:07:39.996Z,960.13
2016-05-28T07:08:39.983Z,960.12
2016-05-28T07:09:39.986Z,960.07
2016-05-28T07:10:40.004Z,960.05
2016-05-28T07:11:40.023Z,960
2016-05-28T07:12:40.025Z,960.03
2016-05-28T07:13:40.043Z,959.99
2016-05-28T07:14:40.046Z,959.98
2016-05-28T07:15:40.048Z,959.97
2016-05-28T07:16:40.068Z,959.94
2016-05-28T07:17:40.070Z,959.96
2016-05-28T07:18:40.089Z,959.94
2016-05-28T07:19:40.262Z,959.94
2016-05-28T07:20:40.109Z,959.91
2016-05-28T07:21:40.111Z,959.88
2016-05-28T07:22:40.131Z,959.89
2016-05-28T07:23:40.133Z,959.87
2016-05-28T07:24:40.151Z,959.86
2016-05-28T07:25:40.154Z,959.86
2016-05-28T07:26:40.156Z,959.82
2016-05-28T07:27:40.175Z,959.81
2016-05-28T07:28:40.177Z,959.74
2016-05-28T07:29:40.197Z,959.72
2016-05-28T07:30:40.199Z,959.7
2016-05-28T07:31:40.216Z,959.74
2016-05-28T07:32:40.236Z,959.72
2016-05-28T07:33:40.239Z,959.68
2016-05-28T07:34:40.257Z,959.65
2016-05-28T07:35:40.259Z,959.65
2016-05-28T07:36:40.277Z,959.66
2016-05-28T07:37:40.280Z,959.67
2016-05-28T07:38:40.298Z,959.63
2016-05-28T07:39:40.301Z,959.69
2016-05-28T07:40:40.304Z,959.64
2016-05-28T07:41:40.322Z,959.65
2016-05-28T07:42:40.324Z,959.66
2016-05-28T07:43:40.343Z,959.64
2016-05-28T07:44:40.346Z,959.64
2016-05-28T07:45:40.364Z,959.64
2016-05-28T07:46:40.367Z,959.59
2016-05-28T07:47:40.384Z,959.61
2016-05-28T07:48:40.387Z,959.58
2016-05-28T07:49:40.406Z,959.6
2016-05-28T07:50:40.409Z,959.61
2016-05-28T07:51:40.427Z,959.58
2016-05-28T07:52:40.445Z,959.57
2016-05-28T07:53:40.448Z,959.54
2016-05-28T07:54:40.450Z,959.49
2016-05-28T07:55:40.469Z,959.49
2016-05-28T07:56:40.472Z,959.52
2016-05-28T07:57:40.490Z,959.46
2016-05-28T07:58:40.493Z,959.46
2016-05-28T07:59:40.511Z,959.46
2016-05-28T08:00:40.513Z,959.48
2016-05-28T08:01:40.533Z,959.49
2016-05-28T08:02:40.550Z,959.51
2016-05-28T08:03:40.538Z,959.52
2016-05-28T08:04:40.555Z,959.51
2016-05-28T08:05:40.574Z,959.51
2016-05-28T08:06:40.577Z,959.49
2016-05-28T08:07:40.595Z,959.48
2016-05-28T08:08:40.598Z,959.43
2016-05-28T08:09:40.616Z,959.41
2016-05-28T08:10:40.619Z,959.4
2016-05-28T08:11:40.637Z,959.37
2016-05-28T08:12:42.796Z,959.32
2016-05-28T08:13:40.658Z,959.34
2016-05-28T08:14:40.676Z,959.37
2016-05-28T08:15:40.679Z,959.4
2016-05-28T08:16:40.682Z,959.35
2016-05-28T08:17:40.700Z,959.39
2016-05-28T08:18:40.703Z,959.4
2016-05-28T08:19:41.174Z,959.39
2016-05-28T08:20:40.723Z,959.39
2016-05-28T08:21:40.727Z,959.38
2016-05-28T08:22:40.745Z,959.36
2016-05-28T08:23:40.747Z,959.41
2016-05-28T08:24:40.766Z,959.4
2016-05-28T08:25:40.769Z,959.36
2016-05-28T08:26:40.786Z,959.35
2016-05-28T08:27:40.790Z,959.41
2016-05-28T08:28:40.808Z,959.4
2016-05-28T08:29:40.811Z,959.4
2016-05-28T08:30:40.829Z,959.38
2016-05-28T08:31:40.847Z,959.41
2016-05-28T08:32:40.850Z,959.44
2016-05-28T08:33:40.868Z,959.43
2016-05-28T08:34:40.871Z,959.43
2016-05-28T08:35:40.889Z,959.45
2016-05-28T08:36:40.954Z,959.48
2016-05-28T08:37:40.894Z,959.48
2016-05-28T08:38:40.913Z,959.5
2016-05-28T08:39:40.932Z,959.51
2016-05-28T08:40:40.935Z,959.49
2016-05-28T08:41:40.937Z,959.45
2016-05-28T08:42:40.955Z,959.47
2016-05-28T08:43:40.957Z,959.46
2016-05-28T08:44:40.976Z,959.47
2016-05-28T08:45:40.979Z,959.45
2016-05-28T08:46:40.997Z,959.47
2016-05-28T08:47:40.999Z,959.47
2016-05-28T08:48:41.018Z,959.49
2016-05-28T08:49:41.052Z,959.49
2016-05-28T08:50:41.055Z,959.46
2016-05-28T08:51:41.042Z,959.5
2016-05-28T08:52:41.059Z,959.47
2016-05-28T08:53:41.063Z,959.51
2016-05-28T08:54:41.081Z,959.51
2016-05-28T08:55:41.084Z,959.48
2016-05-28T08:56:41.103Z,959.48
2016-05-28T08:57:41.120Z,959.52
2016-05-28T08:58:41.122Z,959.51
2016-05-28T08:59:41.141Z,959.5
2016-05-28T09:00:41.144Z,959.48
2016-05-28T09:01:41.162Z,959.47
2016-05-28T09:02:41.164Z,959.48
2016-05-28T09:03:41.184Z,959.41
2016-05-28T09:04:41.186Z,959.41
2016-05-28T09:05:41.345Z,959.39
2016-05-28T09:06:41.207Z,959.38
2016-05-28T09:07:41.210Z,959.4
2016-05-28T09:08:41.227Z,959.39
2016-05-28T09:09:41.230Z,959.36
2016-05-28T09:10:41.249Z,959.37
2016-05-28T09:11:41.252Z,959.39
2016-05-28T09:12:41.270Z,959.36
2016-05-28T09:13:41.288Z,959.36
2016-05-28T09:14:41.291Z,959.36
2016-05-28T09:15:41.310Z,959.36
2016-05-28T09:16:41.312Z,959.35
2016-05-28T09:17:41.315Z,959.33
2016-05-28T09:18:41.333Z,959.33
2016-05-28T09:19:41.445Z,959.35
2016-05-28T09:20:41.354Z,959.34
2016-05-28T09:21:41.356Z,959.31
2016-05-28T09:22:41.376Z,959.32
2016-05-28T09:23:41.378Z,959.28
2016-05-28T09:24:41.396Z,959.25
2016-05-28T09:25:41.399Z,959.26
2016-05-28T09:26:41.418Z,959.24
2016-05-28T09:27:41.436Z,959.24
2016-05-28T09:28:41.438Z,959.24
2016-05-28T09:29:41.441Z,959.25
2016-05-28T09:30:41.459Z,959.25
2016-05-28T09:31:41.462Z,959.26
2016-05-28T09:32:41.481Z,959.25
2016-05-28T09:33:41.482Z,959.22
2016-05-28T09:34:41.500Z,959.2
2016-05-28T09:35:41.503Z,959.22
2016-05-28T09:36:41.522Z,959.24
2016-05-28T09:37:41.555Z,959.28
2016-05-28T09:38:41.543Z,959.26
2016-05-28T09:39:41.561Z,959.24
2016-05-28T09:40:41.563Z,959.26
2016-05-28T09:41:41.567Z,959.22
2016-05-28T09:42:41.585Z,959.2
2016-05-28T09:43:41.604Z,959.21
2016-05-28T09:44:41.606Z,959.18
2016-05-28T09:45:41.624Z,959.18
2016-05-28T09:46:41.627Z,959.18
2016-05-28T09:47:41.646Z,959.15
2016-05-28T09:48:41.649Z,959.18
2016-05-28T09:49:41.666Z,959.17
2016-05-28T09:50:41.809Z,959.13
2016-05-28T09:51:41.687Z,959.11
2016-05-28T09:52:42.971Z,959.1
2016-05-28T09:53:41.692Z,959.1
2016-05-28T09:54:41.711Z,959.15
2016-05-28T09:55:41.714Z,959.15
2016-05-28T09:56:42.045Z,959.12
2016-05-28T09:57:41.750Z,959.13
2016-05-28T09:58:41.784Z,959.17
2016-05-28T09:59:41.756Z,959.12
2016-05-28T10:00:41.775Z,959.16
2016-05-28T10:01:41.792Z,959.18
2016-05-28T10:02:41.794Z,959.14
2016-05-28T10:03:41.813Z,959.16
2016-05-28T10:04:41.817Z,959.23
2016-05-28T10:05:41.834Z,959.23
2016-05-28T10:06:42.883Z,959.15
2016-05-28T10:07:41.856Z,959.15
2016-05-28T10:08:41.858Z,959.15
2016-05-28T10:09:41.877Z,959.09
2016-05-28T10:10:41.880Z,959.08
2016-05-28T10:11:43.242Z,959.12
2016-05-28T10:12:41.900Z,959.1
2016-05-28T10:13:41.918Z,959.09
2016-05-28T10:14:41.921Z,959.07
2016-05-28T10:15:41.940Z,959.06
2016-05-28T10:16:41.943Z,959.09
2016-05-28T10:17:41.961Z,959.05
2016-05-28T10:18:41.963Z,959.05
2016-05-28T10:19:41.982Z,959.06
2016-05-28T10:20:41.984Z,959.03
2016-05-28T10:21:42.002Z,959.02
2016-05-28T10:22:42.005Z,959.02
2016-05-28T10:23:42.024Z,958.98
2016-05-28T10:24:42.026Z,958.97
2016-05-28T10:25:42.044Z,958.98
2016-05-28T10:26:45.048Z,958.97
2016-05-28T10:27:42.065Z,958.99
2016-05-28T10:28:42.084Z,959
2016-05-28T10:29:42.086Z,958.97
2016-05-28T10:30:42.105Z,958.97
2016-05-28T10:31:42.123Z,958.96
2016-05-28T10:32:42.111Z,958.96
2016-05-28T10:33:42.144Z,958.95
2016-05-28T10:34:42.131Z,958.98
2016-05-28T10:35:42.150Z,958.97
2016-05-28T10:36:42.167Z,958.97
2016-05-28T10:37:42.186Z,959.03
2016-05-28T10:38:42.188Z,958.99
2016-05-28T10:39:42.191Z,959
2016-05-28T10:40:42.210Z,958.95
2016-05-28T10:41:42.213Z,958.99
2016-05-28T10:42:42.230Z,958.99
2016-05-28T10:43:42.249Z,958.96
2016-05-28T10:44:42.252Z,958.96
2016-05-28T10:45:42.254Z,958.93
2016-05-28T10:46:42.273Z,958.94
2016-05-28T10:47:42.276Z,958.89
2016-05-28T10:48:42.293Z,958.91
2016-05-28T10:49:42.312Z,958.93
2016-05-28T10:50:42.315Z,958.91
2016-05-28T10:51:42.333Z,958.95
2016-05-28T10:52:42.335Z,958.93
2016-05-28T10:53:42.354Z,958.92
2016-05-28T10:54:42.357Z,958.95
2016-05-28T10:55:42.376Z,958.93
2016-05-28T10:56:42.378Z,958.94
2016-05-28T10:57:42.396Z,958.95
2016-05-28T10:58:42.399Z,958.93
2016-05-28T10:59:42.417Z,958.96
2016-05-28T11:00:42.420Z,958.96
2016-05-28T11:01:42.438Z,958.93
2016-05-28T11:02:42.473Z,958.95
2016-05-28T11:03:42.459Z,958.96
2016-05-28T11:04:42.462Z,958.96
2016-05-28T11:05:42.480Z,958.95
2016-05-28T11:06:42.483Z,958.93
2016-05-28T11:07:42.501Z,958.91
2016-05-28T11:08:42.519Z,958.94
2016-05-28T11:09:42.522Z,958.92
2016-05-28T11:10:42.541Z,958.91
2016-05-28T11:11:42.543Z,958.89
2016-05-28T11:12:42.561Z,958.91
2016-05-28T11:13:42.564Z,958.89
2016-05-28T11:14:42.583Z,958.84
2016-05-28T11:15:42.585Z,958.82
2016-05-28T11:16:42.604Z,958.79
2016-05-28T11:17:42.607Z,958.78
2016-05-28T11:18:42.625Z,958.81
2016-05-28T11:19:42.627Z,958.76
2016-05-28T11:20:42.630Z,958.79
2016-05-28T11:21:42.664Z,958.78
2016-05-28T11:22:42.667Z,958.74
2016-05-28T11:23:42.668Z,958.74
2016-05-28T11:24:42.687Z,958.69
2016-05-28T11:25:42.690Z,958.69
2016-05-28T11:26:42.709Z,958.7
2016-05-28T11:27:42.711Z,958.71
2016-05-28T11:28:42.729Z,958.67
2016-05-28T11:29:42.748Z,958.71
2016-05-28T11:30:42.751Z,958.67
2016-05-28T11:31:42.769Z,958.65
2016-05-28T11:32:43.037Z,958.63
2016-05-28T11:33:42.790Z,958.64
2016-05-28T11:34:42.793Z,958.61
2016-05-28T11:35:42.826Z,958.62
2016-05-28T11:36:42.813Z,958.6
2016-05-28T11:37:43.363Z,958.58
2016-05-28T11:38:42.834Z,958.56
2016-05-28T11:39:42.853Z,958.59
2016-05-28T11:40:42.855Z,958.58
2016-05-28T11:41:42.875Z,958.53
2016-05-28T11:42:42.892Z,958.55
2016-05-28T11:43:42.894Z,958.56
2016-05-28T11:44:42.913Z,958.58
2016-05-28T11:45:42.916Z,958.55
2016-05-28T11:46:42.935Z,958.54
2016-05-28T11:47:42.938Z,958.56
2016-05-28T11:48:42.971Z,958.54
2016-05-28T11:49:42.957Z,958.53
2016-05-28T11:50:42.977Z,958.52
2016-05-28T11:51:42.979Z,958.52
2016-05-28T11:52:42.997Z,958.47
2016-05-28T11:53:43.015Z,958.46
2016-05-28T11:54:43.018Z,958.46
2016-05-28T11:55:43.037Z,958.43
2016-05-28T11:56:43.040Z,958.41
2016-05-28T11:57:43.057Z,958.41
2016-05-28T11:58:43.060Z,958.38
2016-05-28T11:59:43.078Z,958.35
2016-05-28T12:00:43.082Z,958.32
2016-05-28T12:01:43.100Z,958.3
2016-05-28T12:02:43.134Z,958.31
2016-05-28T12:03:43.120Z,958.31
2016-05-28T12:04:43.655Z,958.28
2016-05-28T12:05:43.142Z,958.25
2016-05-28T12:06:43.144Z,958.27
2016-05-28T12:07:43.163Z,958.26
2016-05-28T12:08:43.180Z,958.2
2016-05-28T12:09:43.184Z,958.19
2016-05-28T12:10:43.187Z,958.15
2016-05-28T12:11:43.205Z,958.2
2016-05-28T12:12:43.238Z,958.13
2016-05-28T12:13:43.226Z,958.13
2016-05-28T12:14:43.244Z,958.1
2016-05-28T12:15:43.247Z,958.08
2016-05-28T12:16:43.265Z,958.08
2016-05-28T12:17:43.283Z,958.06
2016-05-28T12:18:43.286Z,958.07
2016-05-28T12:19:43.477Z,958.08
2016-05-28T12:20:43.307Z,958.03
2016-05-28T12:21:43.325Z,957.99
2016-05-28T12:22:43.327Z,957.97
2016-05-28T12:23:43.346Z,957.96
2016-05-28T12:24:43.349Z,957.99
2016-05-28T12:25:43.368Z,957.98
2016-05-28T12:26:43.385Z,957.94
2016-05-28T12:27:43.388Z,957.88
2016-05-28T12:28:43.406Z,957.88
2016-05-28T12:29:43.410Z,957.85
2016-05-28T12:30:43.428Z,957.85